sensor_id;sensor_type;location;lat;lon;timestamp;P1;durP1;ratioP1;P2;durP2;ratioP2
25169;SDS011;13129;48.012;10.352;2022-12-18T04:32:28;39.63;;;18.35;;
25169;SDS011;13129;48.012;10.352;2022-12-18T04:34:53;39.50;;;19.40;;
25169;SDS011;13129;48.012;10.352;2022-12-18T04:37:19;42.53;;;20.30;;
25169;SDS011;13129;48.012;10.352;2022-12-18T04:39:45;35.95;;;19.35;;
25169;SDS011;13129;48.012;10.352;2022-12-18T04:42:11;40.95;;;19.02;;
25169;SDS011;13129;48.012;10.352;2022-12-18T04:44:36;43.78;;;20.63;;
25169;SDS011;13129;48.012;10.352;2022-12-18T04:47:02;36.70;;;19.58;;
25169;SDS011;13129;48.012;10.352;2022-12-18T04:49:28;39.58;;;19.50;;
25169;SDS011;13129;48.012;10.352;2022-12-18T04:51:53;40.45;;;19.02;;
25169;SDS011;13129;48.012;10.352;2022-12-18T04:54:19;40.92;;;19.92;;
25169;SDS011;13129;48.012;10.352;2022-12-18T04:56:45;38.47;;;19.80;;
25169;SDS011;13129;48.012;10.352;2022-12-18T04:59:11;39.83;;;20.35;;
25169;SDS011;13129;48.012;10.352;2022-12-18T05:01:36;40.97;;;20.17;;
25169;SDS011;13129;48.012;10.352;2022-12-18T05:04:02;40.10;;;19.67;;
25169;SDS011;13129;48.012;10.352;2022-12-18T05:06:28;37.10;;;18.42;;
25169;SDS011;13129;48.012;10.352;2022-12-18T05:08:54;40.60;;;17.30;;
25169;SDS011;13129;48.012;10.352;2022-12-18T05:11:20;34.92;;;18.33;;
25169;SDS011;13129;48.012;10.352;2022-12-18T05:13:46;40.25;;;19.45;;
25169;SDS011;13129;48.012;10.352;2022-12-18T05:16:12;40.60;;;18.98;;
25169;SDS011;13129;48.012;10.352;2022-12-18T05:18:39;39.63;;;19.35;;
25169;SDS011;13129;48.012;10.352;2022-12-18T05:21:05;39.83;;;20.27;;
25169;SDS011;13129;48.012;10.352;2022-12-18T05:23:31;42.45;;;20.48;;
25169;SDS011;13129;48.012;10.352;2022-12-18T05:25:58;42.20;;;20.08;;
25169;SDS011;13129;48.012;10.352;2022-12-18T05:28:25;41.78;;;20.80;;
25169;SDS011;13129;48.012;10.352;2022-12-18T05:30:52;44.70;;;20.73;;
25169;SDS011;13129;48.012;10.352;2022-12-18T05:33:20;42.83;;;20.88;;
25169;SDS011;13129;48.012;10.352;2022-12-18T05:35:54;44.05;;;20.55;;
25169;SDS011;13129;48.012;10.352;2022-12-18T05:38:21;39.63;;;18.15;;
25169;SDS011;13129;48.012;10.352;2022-12-18T05:40:48;41.10;;;22.05;;
25169;SDS011;13129;48.012;10.352;2022-12-18T05:43:14;40.20;;;20.80;;
25169;SDS011;13129;48.012;10.352;2022-12-18T05:45:40;44.10;;;20.02;;
25169;SDS011;13129;48.012;10.352;2022-12-18T05:48:07;38.50;;;19.08;;
25169;SDS011;13129;48.012;10.352;2022-12-18T05:50:34;43.92;;;20.45;;
25169;SDS011;13129;48.012;10.352;2022-12-18T05:53:04;43.67;;;19.45;;
25169;SDS011;13129;48.012;10.352;2022-12-18T05:55:34;40.90;;;19.63;;
25169;SDS011;13129;48.012;10.352;2022-12-18T05:58:01;37.75;;;18.92;;
25169;SDS011;13129;48.012;10.352;2022-12-18T06:00:28;45.53;;;21.02;;
25169;SDS011;13129;48.012;10.352;2022-12-18T06:02:55;41.03;;;19.30;;
25169;SDS011;13129;48.012;10.352;2022-12-18T06:05:21;38.83;;;19.52;;
25169;SDS011;13129;48.012;10.352;2022-12-18T06:07:50;41.60;;;18.48;;
25169;SDS011;13129;48.012;10.352;2022-12-18T06:10:16;41.83;;;20.27;;
25169;SDS011;13129;48.012;10.352;2022-12-18T06:12:44;37.60;;;18.58;;
25169;SDS011;13129;48.012;10.352;2022-12-18T06:24:51;48.42;;;21.35;;
25169;SDS011;13129;48.012;10.352;2022-12-18T06:30:53;46.08;;;20.90;;
25169;SDS011;13129;48.012;10.352;2022-12-18T06:33:25;43.28;;;20.58;;
25169;SDS011;13129;48.012;10.352;2022-12-18T06:59:36;41.05;;;18.38;;
25169;SDS011;13129;48.012;10.352;2022-12-18T07:09:50;35.50;;;17.85;;
25169;SDS011;13129;48.012;10.352;2022-12-18T07:16:25;41.28;;;18.40;;
25169;SDS011;13129;48.012;10.352;2022-12-18T07:23:31;41.72;;;19.08;;
25169;SDS011;13129;48.012;10.352;2022-12-18T07:29:49;37.42;;;19.00;;
25169;SDS011;13129;48.012;10.352;2022-12-18T07:32:22;42.72;;;20.17;;
25169;SDS011;13129;48.012;10.352;2022-12-18T07:38:11;39.75;;;18.60;;
25169;SDS011;13129;48.012;10.352;2022-12-18T07:44:23;40.28;;;17.45;;
25169;SDS011;13129;48.012;10.352;2022-12-18T07:51:02;34.03;;;16.83;;
25169;SDS011;13129;48.012;10.352;2022-12-18T07:53:29;39.13;;;18.23;;
25169;SDS011;13129;48.012;10.352;2022-12-18T07:55:56;36.63;;;18.08;;
25169;SDS011;13129;48.012;10.352;2022-12-18T07:58:22;40.88;;;18.98;;
25169;SDS011;13129;48.012;10.352;2022-12-18T08:00:48;40.25;;;17.92;;
25169;SDS011;13129;48.012;10.352;2022-12-18T08:03:13;40.75;;;19.67;;
25169;SDS011;13129;48.012;10.352;2022-12-18T08:05:39;37.92;;;18.10;;
25169;SDS011;13129;48.012;10.352;2022-12-18T08:08:05;39.22;;;18.65;;
25169;SDS011;13129;48.012;10.352;2022-12-18T08:10:30;41.78;;;17.42;;
25169;SDS011;13129;48.012;10.352;2022-12-18T08:12:56;36.55;;;16.23;;
25169;SDS011;13129;48.012;10.352;2022-12-18T08:15:22;39.13;;;18.35;;
25169;SDS011;13129;48.012;10.352;2022-12-18T08:17:47;38.53;;;18.38;;
25169;SDS011;13129;48.012;10.352;2022-12-18T08:20:13;40.10;;;19.35;;
25169;SDS011;13129;48.012;10.352;2022-12-18T08:22:40;35.47;;;18.13;;
25169;SDS011;13129;48.012;10.352;2022-12-18T08:25:06;33.95;;;16.27;;
25169;SDS011;13129;48.012;10.352;2022-12-18T08:27:33;36.67;;;17.10;;
25169;SDS011;13129;48.012;10.352;2022-12-18T08:29:58;36.60;;;17.45;;
25169;SDS011;13129;48.012;10.352;2022-12-18T08:32:25;35.25;;;16.63;;
25169;SDS011;13129;48.012;10.352;2022-12-18T08:34:51;38.58;;;18.17;;
25169;SDS011;13129;48.012;10.352;2022-12-18T08:37:17;41.40;;;17.38;;
25169;SDS011;13129;48.012;10.352;2022-12-18T08:39:43;39.08;;;20.58;;
25169;SDS011;13129;48.012;10.352;2022-12-18T08:42:09;32.65;;;17.13;;
25169;SDS011;13129;48.012;10.352;2022-12-18T08:44:53;37.25;;;18.17;;
25169;SDS011;13129;48.012;10.352;2022-12-18T08:47:19;33.97;;;17.58;;
25169;SDS011;13129;48.012;10.352;2022-12-18T08:49:45;33.30;;;18.10;;
25169;SDS011;13129;48.012;10.352;2022-12-18T08:52:10;37.63;;;18.60;;
25169;SDS011;13129;48.012;10.352;2022-12-18T08:54:36;41.25;;;19.65;;
25169;SDS011;13129;48.012;10.352;2022-12-18T08:57:02;37.38;;;17.05;;
25169;SDS011;13129;48.012;10.352;2022-12-18T08:59:27;32.88;;;16.15;;
25169;SDS011;13129;48.012;10.352;2022-12-18T09:01:53;32.35;;;16.60;;
25169;SDS011;13129;48.012;10.352;2022-12-18T09:04:20;34.92;;;16.00;;
25169;SDS011;13129;48.012;10.352;2022-12-18T09:06:46;36.20;;;17.13;;
25169;SDS011;13129;48.012;10.352;2022-12-18T09:09:11;35.05;;;16.80;;
25169;SDS011;13129;48.012;10.352;2022-12-18T09:11:37;35.85;;;17.98;;
25169;SDS011;13129;48.012;10.352;2022-12-18T09:14:03;33.97;;;17.30;;
25169;SDS011;13129;48.012;10.352;2022-12-18T09:16:29;35.65;;;17.33;;
25169;SDS011;13129;48.012;10.352;2022-12-18T09:18:56;37.53;;;17.10;;
25169;SDS011;13129;48.012;10.352;2022-12-18T09:21:26;32.72;;;16.50;;
25169;SDS011;13129;48.012;10.352;2022-12-18T09:23:54;31.67;;;16.08;;
25169;SDS011;13129;48.012;10.352;2022-12-18T09:26:21;32.03;;;16.98;;
25169;SDS011;13129;48.012;10.352;2022-12-18T09:28:48;29.15;;;15.85;;
25169;SDS011;13129;48.012;10.352;2022-12-18T09:31:14;31.58;;;16.63;;
25169;SDS011;13129;48.012;10.352;2022-12-18T09:33:41;29.08;;;16.40;;
25169;SDS011;13129;48.012;10.352;2022-12-18T09:36:09;27.75;;;14.95;;
25169;SDS011;13129;48.012;10.352;2022-12-18T09:38:36;34.17;;;15.90;;
25169;SDS011;13129;48.012;10.352;2022-12-18T09:43:45;27.55;;;15.63;;
25169;SDS011;13129;48.012;10.352;2022-12-18T09:46:19;31.33;;;17.35;;
25169;SDS011;13129;48.012;10.352;2022-12-18T09:48:54;31.75;;;15.77;;
25169;SDS011;13129;48.012;10.352;2022-12-18T09:51:39;35.10;;;16.00;;
25169;SDS011;13129;48.012;10.352;2022-12-18T09:54:25;33.70;;;16.35;;
25169;SDS011;13129;48.012;10.352;2022-12-18T09:56:58;34.25;;;16.20;;
25169;SDS011;13129;48.012;10.352;2022-12-18T09:59:25;33.75;;;15.90;;
25169;SDS011;13129;48.012;10.352;2022-12-18T10:01:56;31.35;;;16.40;;
25169;SDS011;13129;48.012;10.352;2022-12-18T10:04:23;31.90;;;15.18;;
25169;SDS011;13129;48.012;10.352;2022-12-18T10:06:52;30.20;;;15.07;;
25169;SDS011;13129;48.012;10.352;2022-12-18T10:15:24;27.98;;;14.52;;
25169;SDS011;13129;48.012;10.352;2022-12-18T10:23:02;31.20;;;16.33;;
25169;SDS011;13129;48.012;10.352;2022-12-18T10:25:53;29.33;;;14.60;;
25169;SDS011;13129;48.012;10.352;2022-12-18T10:28:58;29.48;;;15.95;;
25169;SDS011;13129;48.012;10.352;2022-12-18T10:31:30;29.85;;;15.52;;
25169;SDS011;13129;48.012;10.352;2022-12-18T10:44:45;36.40;;;17.52;;
25169;SDS011;13129;48.012;10.352;2022-12-18T10:47:17;31.17;;;16.67;;
25169;SDS011;13129;48.012;10.352;2022-12-18T10:49:47;29.67;;;16.13;;
25169;SDS011;13129;48.012;10.352;2022-12-18T10:52:18;27.63;;;15.07;;
25169;SDS011;13129;48.012;10.352;2022-12-18T10:54:51;31.70;;;16.58;;
25169;SDS011;13129;48.012;10.352;2022-12-18T10:59:55;29.27;;;15.02;;
25169;SDS011;13129;48.012;10.352;2022-12-18T11:02:35;27.55;;;15.15;;
25169;SDS011;13129;48.012;10.352;2022-12-18T11:05:03;29.13;;;16.00;;
25169;SDS011;13129;48.012;10.352;2022-12-18T11:07:49;26.20;;;15.20;;
25169;SDS011;13129;48.012;10.352;2022-12-18T11:10:16;32.30;;;16.50;;
25169;SDS011;13129;48.012;10.352;2022-12-18T11:12:44;28.65;;;15.32;;
25169;SDS011;13129;48.012;10.352;2022-12-18T11:15:19;24.90;;;13.48;;
25169;SDS011;13129;48.012;10.352;2022-12-18T11:17:48;25.92;;;14.98;;
25169;SDS011;13129;48.012;10.352;2022-12-18T11:20:20;28.75;;;14.45;;
25169;SDS011;13129;48.012;10.352;2022-12-18T11:23:01;31.50;;;16.13;;
25169;SDS011;13129;48.012;10.352;2022-12-18T11:25:30;27.33;;;15.05;;
25169;SDS011;13129;48.012;10.352;2022-12-18T11:28:05;25.17;;;13.60;;
25169;SDS011;13129;48.012;10.352;2022-12-18T11:36:25;32.38;;;16.35;;
25169;SDS011;13129;48.012;10.352;2022-12-18T11:38:56;34.22;;;18.83;;
25169;SDS011;13129;48.012;10.352;2022-12-18T11:41:27;27.38;;;14.75;;
25169;SDS011;13129;48.012;10.352;2022-12-18T11:44:30;26.13;;;15.38;;
25169;SDS011;13129;48.012;10.352;2022-12-18T11:47:05;25.30;;;15.40;;
25169;SDS011;13129;48.012;10.352;2022-12-18T11:49:45;23.27;;;13.75;;
25169;SDS011;13129;48.012;10.352;2022-12-18T11:52:24;24.13;;;13.07;;
25169;SDS011;13129;48.012;10.352;2022-12-18T11:55:05;26.80;;;14.05;;
25169;SDS011;13129;48.012;10.352;2022-12-18T12:00:53;30.10;;;16.13;;
25169;SDS011;13129;48.012;10.352;2022-12-18T12:03:47;25.55;;;13.77;;
25169;SDS011;13129;48.012;10.352;2022-12-18T12:17:03;25.63;;;14.23;;
25169;SDS011;13129;48.012;10.352;2022-12-18T12:19:53;27.73;;;15.40;;
25169;SDS011;13129;48.012;10.352;2022-12-18T12:25:15;30.08;;;14.32;;
25169;SDS011;13129;48.012;10.352;2022-12-18T12:27:59;27.70;;;15.45;;
25169;SDS011;13129;48.012;10.352;2022-12-18T12:39:22;26.75;;;15.70;;
25169;SDS011;13129;48.012;10.352;2022-12-18T12:41:55;28.83;;;16.45;;
25169;SDS011;13129;48.012;10.352;2022-12-18T12:44:43;27.77;;;14.95;;
25169;SDS011;13129;48.012;10.352;2022-12-18T12:47:20;27.50;;;14.38;;
25169;SDS011;13129;48.012;10.352;2022-12-18T12:49:50;30.92;;;15.30;;
25169;SDS011;13129;48.012;10.352;2022-12-18T12:54:53;29.67;;;15.65;;
25169;SDS011;13129;48.012;10.352;2022-12-18T12:57:21;31.95;;;16.33;;
25169;SDS011;13129;48.012;10.352;2022-12-18T13:08:04;30.25;;;15.48;;
25169;SDS011;13129;48.012;10.352;2022-12-18T13:10:33;26.13;;;15.40;;
25169;SDS011;13129;48.012;10.352;2022-12-18T13:13:15;24.33;;;14.15;;
25169;SDS011;13129;48.012;10.352;2022-12-18T13:15:48;29.13;;;15.18;;
25169;SDS011;13129;48.012;10.352;2022-12-18T13:18:28;26.48;;;15.43;;
25169;SDS011;13129;48.012;10.352;2022-12-18T13:25:55;30.83;;;16.85;;
25169;SDS011;13129;48.012;10.352;2022-12-18T13:30:59;26.83;;;15.95;;
25169;SDS011;13129;48.012;10.352;2022-12-18T13:36:11;46.72;;;27.02;;
25169;SDS011;13129;48.012;10.352;2022-12-18T13:41:53;30.10;;;15.82;;
25169;SDS011;13129;48.012;10.352;2022-12-18T13:47:01;31.03;;;15.93;;
25169;SDS011;13129;48.012;10.352;2022-12-18T13:55:02;28.13;;;16.50;;
25169;SDS011;13129;48.012;10.352;2022-12-18T13:57:36;30.77;;;16.85;;
25169;SDS011;13129;48.012;10.352;2022-12-18T14:02:47;30.40;;;16.65;;
25169;SDS011;13129;48.012;10.352;2022-12-18T14:05:23;31.02;;;17.02;;
25169;SDS011;13129;48.012;10.352;2022-12-18T14:07:53;31.88;;;16.40;;
25169;SDS011;13129;48.012;10.352;2022-12-18T14:10:20;46.45;;;24.38;;
25169;SDS011;13129;48.012;10.352;2022-12-18T14:12:47;42.05;;;24.40;;
25169;SDS011;13129;48.012;10.352;2022-12-18T14:17:52;33.13;;;17.52;;
25169;SDS011;13129;48.012;10.352;2022-12-18T14:20:28;33.25;;;17.15;;
25169;SDS011;13129;48.012;10.352;2022-12-18T14:22:57;32.28;;;17.48;;
25169;SDS011;13129;48.012;10.352;2022-12-18T14:25:24;31.25;;;17.70;;
25169;SDS011;13129;48.012;10.352;2022-12-18T14:30:36;28.17;;;15.93;;
25169;SDS011;13129;48.012;10.352;2022-12-18T14:33:11;32.22;;;19.30;;
25169;SDS011;13129;48.012;10.352;2022-12-18T14:35:43;33.08;;;16.90;;
25169;SDS011;13129;48.012;10.352;2022-12-18T14:38:28;35.20;;;18.17;;
25169;SDS011;13129;48.012;10.352;2022-12-18T14:40:55;38.17;;;18.27;;
25169;SDS011;13129;48.012;10.352;2022-12-18T14:43:21;33.70;;;18.90;;
25169;SDS011;13129;48.012;10.352;2022-12-18T14:45:47;34.97;;;17.70;;
25169;SDS011;13129;48.012;10.352;2022-12-18T14:48:19;36.90;;;20.42;;
25169;SDS011;13129;48.012;10.352;2022-12-18T14:53:20;38.05;;;18.80;;
25169;SDS011;13129;48.012;10.352;2022-12-18T14:55:49;37.28;;;19.35;;
25169;SDS011;13129;48.012;10.352;2022-12-18T14:58:15;39.28;;;19.92;;
25169;SDS011;13129;48.012;10.352;2022-12-18T15:00:43;41.55;;;19.60;;
25169;SDS011;13129;48.012;10.352;2022-12-18T15:03:09;39.22;;;18.15;;
25169;SDS011;13129;48.012;10.352;2022-12-18T15:05:35;35.80;;;19.13;;
25169;SDS011;13129;48.012;10.352;2022-12-18T15:08:01;38.72;;;19.48;;
25169;SDS011;13129;48.012;10.352;2022-12-18T15:10:29;37.83;;;19.13;;
25169;SDS011;13129;48.012;10.352;2022-12-18T15:23:14;42.10;;;20.15;;
25169;SDS011;13129;48.012;10.352;2022-12-18T15:25:58;36.53;;;19.50;;
25169;SDS011;13129;48.012;10.352;2022-12-18T15:34:10;42.97;;;20.55;;
25169;SDS011;13129;48.012;10.352;2022-12-18T15:36:47;42.35;;;20.85;;
25169;SDS011;13129;48.012;10.352;2022-12-18T15:42:38;42.85;;;21.42;;
25169;SDS011;13129;48.012;10.352;2022-12-18T15:45:29;37.40;;;20.00;;
25169;SDS011;13129;48.012;10.352;2022-12-18T15:50:59;42.70;;;21.30;;
25169;SDS011;13129;48.012;10.352;2022-12-18T15:53:30;42.28;;;20.17;;
25169;SDS011;13129;48.012;10.352;2022-12-18T15:55:58;40.25;;;19.20;;
25169;SDS011;13129;48.012;10.352;2022-12-18T15:58:43;47.85;;;21.10;;
25169;SDS011;13129;48.012;10.352;2022-12-18T16:01:09;41.42;;;19.73;;
25169;SDS011;13129;48.012;10.352;2022-12-18T16:03:35;36.95;;;20.50;;
25169;SDS011;13129;48.012;10.352;2022-12-18T16:06:01;46.72;;;20.73;;
25169;SDS011;13129;48.012;10.352;2022-12-18T16:08:28;44.67;;;21.25;;
25169;SDS011;13129;48.012;10.352;2022-12-18T16:10:57;36.75;;;18.98;;
25169;SDS011;13129;48.012;10.352;2022-12-18T16:13:23;45.17;;;20.25;;
25169;SDS011;13129;48.012;10.352;2022-12-18T16:16:01;38.08;;;19.35;;
25169;SDS011;13129;48.012;10.352;2022-12-18T16:18:38;41.40;;;18.95;;
25169;SDS011;13129;48.012;10.352;2022-12-18T16:21:22;40.40;;;19.33;;
25169;SDS011;13129;48.012;10.352;2022-12-18T16:24:18;37.78;;;18.05;;
25169;SDS011;13129;48.012;10.352;2022-12-18T16:26:49;34.05;;;18.20;;
25169;SDS011;13129;48.012;10.352;2022-12-18T16:29:19;41.78;;;20.08;;
25169;SDS011;13129;48.012;10.352;2022-12-18T16:31:50;42.35;;;20.35;;
25169;SDS011;13129;48.012;10.352;2022-12-18T16:34:25;40.60;;;20.23;;
25169;SDS011;13129;48.012;10.352;2022-12-18T16:36:56;42.78;;;20.48;;
25169;SDS011;13129;48.012;10.352;2022-12-18T16:39:24;45.80;;;22.05;;
25169;SDS011;13129;48.012;10.352;2022-12-18T16:41:50;41.47;;;22.33;;
25169;SDS011;13129;48.012;10.352;2022-12-18T16:44:19;45.33;;;22.00;;
25169;SDS011;13129;48.012;10.352;2022-12-18T16:46:45;45.78;;;22.15;;
25169;SDS011;13129;48.012;10.352;2022-12-18T17:06:06;40.35;;;19.80;;
25169;SDS011;13129;48.012;10.352;2022-12-18T17:09:21;38.53;;;18.08;;
25169;SDS011;13129;48.012;10.352;2022-12-18T17:12:05;45.50;;;19.42;;
25169;SDS011;13129;48.012;10.352;2022-12-18T17:15:01;49.83;;;22.92;;
25169;SDS011;13129;48.012;10.352;2022-12-18T17:20:36;48.47;;;21.52;;
25169;SDS011;13129;48.012;10.352;2022-12-18T17:23:02;50.95;;;21.48;;
25169;SDS011;13129;48.012;10.352;2022-12-18T17:25:28;46.60;;;22.00;;
25169;SDS011;13129;48.012;10.352;2022-12-18T17:27:54;48.95;;;21.75;;
25169;SDS011;13129;48.012;10.352;2022-12-18T17:30:22;53.58;;;22.20;;
25169;SDS011;13129;48.012;10.352;2022-12-18T17:32:48;96.97;;;26.58;;
25169;SDS011;13129;48.012;10.352;2022-12-18T17:35:13;64.85;;;25.45;;
25169;SDS011;13129;48.012;10.352;2022-12-18T17:37:39;55.70;;;24.75;;
25169;SDS011;13129;48.012;10.352;2022-12-18T17:40:05;67.30;;;25.15;;
25169;SDS011;13129;48.012;10.352;2022-12-18T17:42:35;81.22;;;28.73;;
25169;SDS011;13129;48.012;10.352;2022-12-18T17:45:01;69.20;;;29.70;;
25169;SDS011;13129;48.012;10.352;2022-12-18T17:47:27;66.18;;;26.92;;
25169;SDS011;13129;48.012;10.352;2022-12-18T17:49:53;61.05;;;28.10;;
25169;SDS011;13129;48.012;10.352;2022-12-18T17:52:19;65.00;;;27.65;;
25169;SDS011;13129;48.012;10.352;2022-12-18T17:54:44;67.93;;;27.08;;
25169;SDS011;13129;48.012;10.352;2022-12-18T17:57:10;64.85;;;28.52;;
25169;SDS011;13129;48.012;10.352;2022-12-18T17:59:36;57.22;;;25.13;;
25169;SDS011;13129;48.012;10.352;2022-12-18T18:02:01;63.78;;;26.55;;
25169;SDS011;13129;48.012;10.352;2022-12-18T18:04:27;66.10;;;28.40;;
25169;SDS011;13129;48.012;10.352;2022-12-18T18:06:53;58.40;;;27.20;;
25169;SDS011;13129;48.012;10.352;2022-12-18T18:09:19;78.78;;;30.60;;
25169;SDS011;13129;48.012;10.352;2022-12-18T18:11:44;72.85;;;28.92;;
25169;SDS011;13129;48.012;10.352;2022-12-18T18:14:28;61.83;;;27.23;;
25169;SDS011;13129;48.012;10.352;2022-12-18T18:16:54;48.58;;;23.35;;
25169;SDS011;13129;48.012;10.352;2022-12-18T18:19:21;50.88;;;21.77;;
25169;SDS011;13129;48.012;10.352;2022-12-18T18:21:48;45.60;;;22.25;;
25169;SDS011;13129;48.012;10.352;2022-12-18T18:24:16;47.95;;;21.58;;
25169;SDS011;13129;48.012;10.352;2022-12-18T18:26:43;43.40;;;21.25;;
25169;SDS011;13129;48.012;10.352;2022-12-18T18:29:20;54.97;;;24.08;;
25169;SDS011;13129;48.012;10.352;2022-12-18T18:31:47;54.42;;;23.63;;
25169;SDS011;13129;48.012;10.352;2022-12-18T18:34:17;58.28;;;26.27;;
25169;SDS011;13129;48.012;10.352;2022-12-18T18:36:46;51.20;;;22.77;;
25169;SDS011;13129;48.012;10.352;2022-12-18T18:39:12;60.90;;;25.40;;
25169;SDS011;13129;48.012;10.352;2022-12-18T18:41:38;68.40;;;26.23;;
25169;SDS011;13129;48.012;10.352;2022-12-18T18:44:04;55.58;;;25.80;;
25169;SDS011;13129;48.012;10.352;2022-12-18T18:46:30;57.78;;;25.58;;
25169;SDS011;13129;48.012;10.352;2022-12-18T18:48:57;51.15;;;22.95;;
25169;SDS011;13129;48.012;10.352;2022-12-18T18:51:22;44.40;;;21.00;;
25169;SDS011;13129;48.012;10.352;2022-12-18T18:53:49;47.58;;;23.85;;
25169;SDS011;13129;48.012;10.352;2022-12-18T18:56:17;50.42;;;23.60;;
25169;SDS011;13129;48.012;10.352;2022-12-18T18:58:48;41.42;;;21.77;;
25169;SDS011;13129;48.012;10.352;2022-12-18T19:01:15;50.08;;;23.42;;
25169;SDS011;13129;48.012;10.352;2022-12-18T19:03:42;48.13;;;25.17;;
25169;SDS011;13129;48.012;10.352;2022-12-18T19:06:10;59.65;;;28.85;;
25169;SDS011;13129;48.012;10.352;2022-12-18T19:08:42;69.03;;;33.50;;
25169;SDS011;13129;48.012;10.352;2022-12-18T19:11:08;76.85;;;37.38;;
25169;SDS011;13129;48.012;10.352;2022-12-18T19:13:53;65.68;;;33.20;;
25169;SDS011;13129;48.012;10.352;2022-12-18T19:16:19;68.57;;;33.88;;
25169;SDS011;13129;48.012;10.352;2022-12-18T19:18:45;76.43;;;35.58;;
25169;SDS011;13129;48.012;10.352;2022-12-18T19:21:11;66.38;;;31.10;;
25169;SDS011;13129;48.012;10.352;2022-12-18T19:23:36;63.60;;;28.92;;
25169;SDS011;13129;48.012;10.352;2022-12-18T19:26:03;55.22;;;26.38;;
25169;SDS011;13129;48.012;10.352;2022-12-18T19:28:30;53.10;;;24.85;;
25169;SDS011;13129;48.012;10.352;2022-12-18T19:30:59;50.70;;;23.27;;
25169;SDS011;13129;48.012;10.352;2022-12-18T19:33:28;50.33;;;24.77;;
25169;SDS011;13129;48.012;10.352;2022-12-18T19:35:55;50.47;;;25.77;;
25169;SDS011;13129;48.012;10.352;2022-12-18T19:38:20;57.80;;;25.30;;
25169;SDS011;13129;48.012;10.352;2022-12-18T19:40:46;50.67;;;26.33;;
25169;SDS011;13129;48.012;10.352;2022-12-18T19:43:12;50.50;;;25.75;;
25169;SDS011;13129;48.012;10.352;2022-12-18T19:45:39;53.35;;;26.40;;
25169;SDS011;13129;48.012;10.352;2022-12-18T19:48:05;50.58;;;25.92;;
25169;SDS011;13129;48.012;10.352;2022-12-18T19:50:31;53.55;;;26.27;;
25169;SDS011;13129;48.012;10.352;2022-12-18T19:52:58;51.95;;;24.58;;
25169;SDS011;13129;48.012;10.352;2022-12-18T19:55:23;48.25;;;23.75;;
25169;SDS011;13129;48.012;10.352;2022-12-18T19:57:49;46.05;;;23.10;;
25169;SDS011;13129;48.012;10.352;2022-12-18T20:00:15;49.20;;;23.40;;
25169;SDS011;13129;48.012;10.352;2022-12-18T20:02:41;54.13;;;26.95;;
25169;SDS011;13129;48.012;10.352;2022-12-18T20:05:10;56.33;;;26.67;;
25169;SDS011;13129;48.012;10.352;2022-12-18T20:07:37;59.47;;;29.52;;
25169;SDS011;13129;48.012;10.352;2022-12-18T20:10:04;51.08;;;25.60;;
25169;SDS011;13129;48.012;10.352;2022-12-18T20:12:32;49.42;;;25.13;;
25169;SDS011;13129;48.012;10.352;2022-12-18T20:14:58;52.72;;;24.98;;
25169;SDS011;13129;48.012;10.352;2022-12-18T20:17:25;51.75;;;26.30;;
25169;SDS011;13129;48.012;10.352;2022-12-18T20:19:50;46.95;;;24.67;;
25169;SDS011;13129;48.012;10.352;2022-12-18T20:22:16;55.25;;;28.10;;
25169;SDS011;13129;48.012;10.352;2022-12-18T20:24:42;50.97;;;26.23;;
25169;SDS011;13129;48.012;10.352;2022-12-18T20:27:08;48.10;;;24.23;;
25169;SDS011;13129;48.012;10.352;2022-12-18T20:29:34;50.45;;;26.02;;
25169;SDS011;13129;48.012;10.352;2022-12-18T20:32:00;46.50;;;23.45;;
25169;SDS011;13129;48.012;10.352;2022-12-18T20:34:26;51.78;;;24.23;;
25169;SDS011;13129;48.012;10.352;2022-12-18T20:36:52;48.22;;;23.95;;
25169;SDS011;13129;48.012;10.352;2022-12-18T20:39:18;47.05;;;22.85;;
25169;SDS011;13129;48.012;10.352;2022-12-18T20:41:44;51.55;;;24.05;;
25169;SDS011;13129;48.012;10.352;2022-12-18T20:44:14;47.78;;;23.02;;
25169;SDS011;13129;48.012;10.352;2022-12-18T20:46:41;48.45;;;24.30;;
25169;SDS011;13129;48.012;10.352;2022-12-18T20:49:07;45.00;;;23.65;;
25169;SDS011;13129;48.012;10.352;2022-12-18T20:51:34;48.05;;;23.02;;
25169;SDS011;13129;48.012;10.352;2022-12-18T20:54:01;54.63;;;27.90;;
25169;SDS011;13129;48.012;10.352;2022-12-18T20:56:27;52.08;;;26.52;;
25169;SDS011;13129;48.012;10.352;2022-12-18T20:58:57;56.58;;;26.50;;
25169;SDS011;13129;48.012;10.352;2022-12-18T21:01:25;47.05;;;26.23;;
25169;SDS011;13129;48.012;10.352;2022-12-18T21:03:52;53.40;;;26.45;;
25169;SDS011;13129;48.012;10.352;2022-12-18T21:06:19;53.45;;;29.73;;
25169;SDS011;13129;48.012;10.352;2022-12-18T21:08:46;54.70;;;26.27;;
25169;SDS011;13129;48.012;10.352;2022-12-18T21:14:10;47.05;;;24.55;;
25169;SDS011;13129;48.012;10.352;2022-12-18T21:16:41;48.17;;;25.05;;
25169;SDS011;13129;48.012;10.352;2022-12-18T21:19:08;50.20;;;25.17;;
25169;SDS011;13129;48.012;10.352;2022-12-18T21:21:37;43.55;;;23.15;;
25169;SDS011;13129;48.012;10.352;2022-12-18T21:24:03;48.28;;;24.52;;
25169;SDS011;13129;48.012;10.352;2022-12-18T21:26:31;51.60;;;24.40;;
25169;SDS011;13129;48.012;10.352;2022-12-18T21:28:59;42.53;;;23.25;;
25169;SDS011;13129;48.012;10.352;2022-12-18T21:31:29;48.60;;;24.95;;
25169;SDS011;13129;48.012;10.352;2022-12-18T21:33:59;61.28;;;33.92;;
25169;SDS011;13129;48.012;10.352;2022-12-18T21:36:27;50.60;;;25.55;;
25169;SDS011;13129;48.012;10.352;2022-12-18T21:38:54;54.67;;;27.98;;
25169;SDS011;13129;48.012;10.352;2022-12-18T21:41:21;45.22;;;23.98;;
25169;SDS011;13129;48.012;10.352;2022-12-18T21:44:06;43.58;;;23.70;;
25169;SDS011;13129;48.012;10.352;2022-12-18T21:49:05;53.10;;;26.63;;
25169;SDS011;13129;48.012;10.352;2022-12-18T21:51:32;49.55;;;22.92;;
25169;SDS011;13129;48.012;10.352;2022-12-18T21:53:59;49.15;;;24.63;;
25169;SDS011;13129;48.012;10.352;2022-12-18T21:56:47;43.35;;;22.95;;
25169;SDS011;13129;48.012;10.352;2022-12-18T21:59:16;42.42;;;22.45;;
25169;SDS011;13129;48.012;10.352;2022-12-18T22:01:45;46.33;;;24.05;;
25169;SDS011;13129;48.012;10.352;2022-12-18T22:04:11;45.83;;;23.27;;
25169;SDS011;13129;48.012;10.352;2022-12-18T22:06:38;45.13;;;22.88;;
25169;SDS011;13129;48.012;10.352;2022-12-18T22:09:06;46.83;;;22.13;;
25169;SDS011;13129;48.012;10.352;2022-12-18T22:11:31;38.15;;;22.20;;
25169;SDS011;13129;48.012;10.352;2022-12-18T22:13:57;43.00;;;22.48;;
25169;SDS011;13129;48.012;10.352;2022-12-18T22:16:23;40.47;;;20.70;;
25169;SDS011;13129;48.012;10.352;2022-12-18T22:18:48;42.80;;;22.63;;
25169;SDS011;13129;48.012;10.352;2022-12-18T22:21:21;40.40;;;22.23;;
25169;SDS011;13129;48.012;10.352;2022-12-18T22:23:54;39.55;;;21.48;;
25169;SDS011;13129;48.012;10.352;2022-12-18T22:26:21;44.88;;;22.45;;
25169;SDS011;13129;48.012;10.352;2022-12-18T22:28:48;44.00;;;22.95;;
25169;SDS011;13129;48.012;10.352;2022-12-18T22:31:33;44.85;;;23.00;;